עמוד ראשי
METAR-TAF:

METAR-TAF

שדות תעופה :

Atar, מאוריטניה

קו רוחב: 20-30-24N, קו אורך: 013-02-35W, גובה: 231מטר

תצפית מזג אוויר נוכחית

הדו"ח נערך לפני 8 שעות ו 56דקות, בשעה 15:00 UTC
רוח 12קשר מכיוון מזרח/צפון-מזרח
טמפרטורת 40 צלסיוס
לחות 18%
לחץ 1016 hPa
ראות: 6000מטר
אבק נרחבת,

METAR: GQPA 121500Z 06012KT 6000 DU NSC 40/11 Q1016

זמן: 23:56 (23:56 UTC)


TAF: חסר

תצפיות ותחזיות מזג אוויר לגבי יותר מ- 4,000 שדות תעופה ברחבי העולם. דוחות METAR ו- TAF.

התחנות הזמינות מסומנות בנקודות צהובות ואדומות על גבי המפה.

העבר את העכבר לנקודה הצבעונית על מנת לראות את שם התחנה.

לאחר מכן, לחץ כדי לראות את תוכן ואת תחזיות מזג האוויר.

כדי לשנות את המפה: לחץ על הכפתורים הירוקים עם הפלוס השחור כדי להתקרב; על הכפתור הירוק עם המקף כדי להתרחק; או בחיצים הירוקים למפות סמוכות.


METAR-TAF: